createdAt,value
2022-12-11T00:01:19.920Z,25.33
2022-12-11T00:03:48.771Z,25.20
2022-12-11T00:06:19.528Z,25.28
2022-12-11T00:08:48.002Z,26.11
2022-12-11T00:11:17.451Z,26.19
2022-12-11T00:13:45.241Z,25.98
2022-12-11T00:16:13.168Z,26.24
2022-12-11T00:18:41.202Z,26.34
2022-12-11T00:21:12.989Z,26.72
2022-12-11T00:23:41.333Z,26.69
2022-12-11T00:26:13.667Z,26.69
2022-12-11T00:28:42.065Z,26.45
2022-12-11T00:31:14.300Z,26.73
2022-12-11T00:33:43.688Z,26.52
2022-12-11T00:36:23.371Z,26.44
2022-12-11T00:38:51.731Z,26.62
2022-12-11T00:41:19.920Z,26.80
2022-12-11T00:43:48.826Z,26.72
2022-12-11T00:46:16.553Z,26.72
2022-12-11T00:48:44.386Z,26.45
2022-12-11T00:51:12.655Z,26.55
2022-12-11T00:53:40.296Z,26.55
2022-12-11T00:56:13.497Z,26.77
2022-12-11T00:58:41.232Z,26.97
2022-12-11T01:01:15.692Z,26.49
2022-12-11T01:03:43.735Z,26.67
2022-12-11T01:06:20.810Z,26.80
2022-12-11T01:08:48.940Z,26.69
2022-12-11T01:11:17.420Z,25.98
2022-12-11T01:13:45.552Z,25.84
2022-12-11T01:16:16.256Z,26.26
2022-12-11T01:18:44.283Z,26.46
2022-12-11T01:21:14.156Z,26.34
2022-12-11T01:23:41.940Z,26.89
2022-12-11T01:26:12.506Z,27.02
2022-12-11T01:28:41.150Z,26.86
2022-12-11T01:31:11.135Z,26.75
2022-12-11T01:33:40.026Z,26.46
2022-12-11T01:36:20.394Z,26.73
2022-12-11T01:38:49.282Z,26.87
2022-12-11T01:41:18.549Z,26.55
2022-12-11T01:44:15.437Z,25.90
2022-12-11T01:46:43.738Z,25.99
2022-12-11T01:49:14.021Z,27.40
2022-12-11T01:51:52.160Z,27.32
2022-12-11T01:54:23.081Z,27.08
2022-12-11T01:56:53.452Z,26.06
2022-12-11T01:59:24.853Z,26.07
2022-12-11T02:02:14.609Z,26.66
2022-12-11T02:04:44.591Z,26.60
2022-12-11T02:07:12.307Z,26.34
2022-12-11T02:09:42.803Z,26.42
2022-12-11T02:12:42.862Z,26.80
2022-12-11T02:15:22.559Z,26.50
2022-12-11T02:18:02.503Z,26.14
2022-12-11T02:20:48.309Z,26.60
2022-12-11T02:23:25.648Z,26.83
2022-12-11T02:26:20.400Z,26.84
2022-12-11T02:28:56.560Z,26.76
2022-12-11T02:31:30.191Z,27.08
2022-12-11T02:34:29.140Z,27.60
2022-12-11T02:37:04.571Z,27.28
2022-12-11T02:39:36.204Z,27.37
2022-12-11T02:42:05.146Z,27.14
2022-12-11T02:44:34.382Z,26.91
2022-12-11T02:47:04.966Z,27.17
2022-12-11T02:49:34.287Z,27.00
2022-12-11T02:52:04.061Z,26.81
2022-12-11T02:54:36.250Z,26.61
2022-12-11T02:57:11.696Z,26.88
2022-12-11T02:59:42.930Z,27.35
2022-12-11T03:02:12.698Z,27.27
2022-12-11T03:04:41.616Z,27.31
2022-12-11T03:07:17.466Z,28.05
2022-12-11T03:09:48.801Z,27.26
2022-12-11T03:12:24.751Z,27.54
2022-12-11T03:14:52.507Z,27.41
2022-12-11T03:17:24.193Z,27.24
2022-12-11T03:20:06.969Z,27.66
2022-12-11T03:22:38.750Z,27.77
2022-12-11T03:25:09.909Z,27.55
2022-12-11T03:27:58.358Z,27.37
2022-12-11T03:30:29.001Z,27.16
2022-12-11T03:33:05.031Z,27.35
2022-12-11T03:35:56.504Z,27.66
2022-12-11T03:38:31.535Z,27.78
2022-12-11T03:41:02.418Z,27.85
2022-12-11T03:43:32.529Z,27.89
2022-12-11T03:46:01.499Z,27.62
2022-12-11T03:48:36.067Z,27.05
2022-12-11T03:51:06.468Z,27.35
2022-12-11T03:53:38.936Z,27.34
2022-12-11T03:56:10.823Z,27.86
2022-12-11T03:58:38.828Z,27.52
2022-12-11T04:01:10.858Z,27.75
2022-12-11T04:03:39.027Z,27.58
2022-12-11T04:06:07.010Z,27.33
2022-12-11T04:08:34.804Z,27.40
2022-12-11T04:11:22.516Z,27.44
2022-12-11T04:14:08.851Z,27.68
2022-12-11T04:16:36.613Z,27.81
2022-12-11T04:19:24.113Z,27.96
2022-12-11T04:22:13.496Z,27.88
2022-12-11T04:24:41.572Z,28.55
2022-12-11T04:27:09.272Z,28.73
2022-12-11T04:29:37.070Z,28.42
2022-12-11T04:32:05.066Z,28.07
2022-12-11T04:34:32.807Z,28.48
2022-12-11T04:37:00.529Z,28.58
2022-12-11T04:39:28.359Z,28.49
2022-12-11T04:41:56.071Z,28.58
2022-12-11T04:44:23.651Z,28.36
2022-12-11T04:46:51.436Z,28.51
2022-12-11T04:49:19.108Z,28.61
2022-12-11T04:51:46.814Z,28.37
2022-12-11T04:54:14.429Z,28.29
2022-12-11T04:56:42.116Z,28.36
2022-12-11T04:59:10.143Z,28.46
2022-12-11T05:01:37.962Z,28.60
2022-12-11T05:04:05.677Z,28.79
2022-12-11T05:06:33.329Z,28.68
2022-12-11T05:09:01.228Z,28.50
2022-12-11T05:11:28.890Z,28.90
2022-12-11T05:13:56.710Z,28.98
2022-12-11T05:16:24.403Z,28.96
2022-12-11T05:18:52.142Z,29.31
2022-12-11T05:21:19.806Z,29.29
2022-12-11T05:23:47.585Z,29.93
2022-12-11T05:26:19.323Z,29.99
2022-12-11T05:28:50.877Z,29.34
2022-12-11T05:31:21.305Z,29.35
2022-12-11T05:33:50.488Z,29.39
2022-12-11T05:36:21.558Z,29.29
2022-12-11T05:38:50.052Z,29.57
2022-12-11T05:41:20.941Z,29.74
2022-12-11T05:43:49.039Z,29.94
2022-12-11T05:46:22.970Z,29.71
2022-12-11T05:48:53.070Z,29.58
2022-12-11T05:51:21.026Z,29.32
2022-12-11T05:53:51.166Z,29.54
2022-12-11T05:56:26.519Z,29.47
2022-12-11T05:58:55.110Z,29.42
2022-12-11T06:01:28.959Z,29.66
2022-12-11T06:03:57.713Z,30.19
2022-12-11T06:06:26.499Z,29.85
2022-12-11T06:08:56.796Z,29.42
2022-12-11T06:11:26.299Z,29.89
2022-12-11T06:13:54.499Z,30.54
2022-12-11T06:16:22.869Z,30.21
2022-12-11T06:18:51.143Z,30.25
2022-12-11T06:21:22.385Z,30.23
2022-12-11T06:23:54.338Z,30.30
2022-12-11T06:26:22.795Z,30.66
2022-12-11T06:28:50.754Z,30.75
2022-12-11T06:31:19.188Z,31.02
2022-12-11T06:33:47.672Z,31.22
2022-12-11T06:36:18.481Z,31.62
2022-12-11T06:38:46.478Z,31.01
2022-12-11T06:41:14.835Z,31.09
2022-12-11T06:43:43.460Z,31.24
2022-12-11T06:46:18.832Z,31.30
2022-12-11T06:48:48.046Z,31.67
2022-12-11T06:51:18.792Z,31.56
2022-12-11T06:53:52.077Z,31.27
2022-12-11T06:56:20.005Z,31.26
2022-12-11T06:58:47.716Z,31.36
2022-12-11T07:01:24.493Z,31.24
2022-12-11T07:04:00.508Z,31.25
2022-12-11T07:06:29.034Z,31.10
2022-12-11T07:09:00.273Z,31.19
2022-12-11T07:11:28.088Z,30.99
2022-12-11T07:14:00.169Z,31.37
2022-12-11T07:16:28.246Z,31.67
2022-12-11T07:18:55.919Z,31.75
2022-12-11T07:21:23.966Z,32.11
2022-12-11T07:23:51.660Z,33.87
2022-12-11T07:26:22.176Z,32.77
2022-12-11T07:28:50.480Z,32.85
2022-12-11T07:31:23.810Z,32.31
2022-12-11T07:34:00.924Z,31.83
2022-12-11T07:36:29.824Z,32.07
2022-12-11T07:38:59.046Z,32.12
2022-12-11T07:41:32.311Z,31.97
2022-12-11T07:44:01.297Z,31.79
2022-12-11T07:46:31.064Z,31.61
2022-12-11T07:49:01.034Z,31.93
2022-12-11T07:51:32.368Z,32.02
2022-12-11T07:54:02.770Z,31.85
2022-12-11T07:56:30.959Z,32.05
2022-12-11T07:59:03.349Z,32.19
2022-12-11T08:01:35.855Z,31.95
2022-12-11T08:04:09.578Z,32.08
2022-12-11T08:06:40.427Z,32.24
2022-12-11T08:09:13.546Z,32.38
2022-12-11T08:11:45.091Z,32.90
2022-12-11T08:14:13.036Z,33.25
2022-12-11T08:16:43.230Z,34.00
2022-12-11T08:19:14.711Z,33.49
2022-12-11T08:21:42.597Z,33.47
2022-12-11T08:24:10.759Z,33.39
2022-12-11T08:26:38.591Z,33.41
2022-12-11T08:29:06.421Z,33.56
2022-12-11T08:31:34.434Z,33.83
2022-12-11T08:34:02.458Z,33.35
2022-12-11T08:36:30.198Z,33.41
2022-12-11T08:38:57.948Z,33.35
2022-12-11T08:41:30.356Z,33.37
2022-12-11T08:44:00.585Z,32.94
2022-12-11T08:46:31.879Z,33.18
2022-12-11T08:49:00.349Z,33.14
2022-12-11T08:51:29.511Z,33.15
2022-12-11T08:53:59.359Z,33.18
2022-12-11T08:56:28.436Z,33.38
2022-12-11T08:58:56.271Z,33.27
2022-12-11T09:01:26.247Z,33.50
2022-12-11T09:03:55.756Z,33.24
2022-12-11T09:06:25.170Z,32.84
2022-12-11T09:08:53.766Z,33.09
2022-12-11T09:11:27.198Z,33.22
2022-12-11T09:13:55.474Z,33.13
2022-12-11T09:16:26.363Z,32.84
2022-12-11T09:18:56.839Z,33.03
2022-12-11T09:21:29.416Z,33.08
2022-12-11T09:24:00.581Z,33.48
2022-12-11T09:26:30.302Z,34.12
2022-12-11T09:28:58.788Z,34.55
2022-12-11T09:31:33.791Z,34.05
2022-12-11T09:34:05.181Z,41.32
2022-12-11T09:36:33.866Z,36.23
2022-12-11T09:39:04.758Z,34.98
2022-12-11T09:41:39.001Z,34.98
2022-12-11T09:44:32.667Z,34.10
2022-12-11T09:47:01.280Z,34.42
2022-12-11T09:49:43.740Z,34.78
2022-12-11T09:52:34.852Z,35.44
2022-12-11T09:55:24.552Z,35.23
2022-12-11T09:58:06.984Z,34.65
2022-12-11T10:00:47.807Z,35.57
2022-12-11T10:04:00.310Z,35.02
2022-12-11T10:06:37.379Z,34.17
2022-12-11T10:09:17.366Z,33.81
2022-12-11T10:11:56.522Z,34.20
2022-12-11T10:14:41.623Z,33.33
2022-12-11T10:17:31.318Z,34.36
2022-12-11T10:20:14.574Z,34.47
2022-12-11T10:22:43.236Z,34.43
2022-12-11T10:25:26.439Z,34.83
2022-12-11T10:27:54.588Z,35.02
2022-12-11T10:30:34.474Z,35.24
2022-12-11T10:33:11.788Z,35.20
2022-12-11T10:35:47.965Z,35.04
2022-12-11T10:38:40.870Z,35.07
2022-12-11T10:41:13.770Z,35.24
2022-12-11T10:43:48.582Z,35.34
2022-12-11T10:46:28.751Z,34.62
2022-12-11T10:49:00.103Z,36.67
2022-12-11T10:51:31.061Z,39.70
2022-12-11T10:54:16.724Z,41.73
2022-12-11T10:56:48.650Z,36.86
2022-12-11T10:59:45.862Z,35.88
2022-12-11T11:02:31.301Z,35.21
2022-12-11T11:05:11.372Z,35.46
2022-12-11T11:07:39.456Z,35.12
2022-12-11T11:10:17.396Z,34.98
2022-12-11T11:12:50.145Z,34.93
2022-12-11T11:15:28.565Z,35.09
2022-12-11T11:18:01.337Z,35.09
2022-12-11T11:20:31.481Z,34.60
2022-12-11T11:23:05.193Z,34.97
2022-12-11T11:25:34.271Z,35.29
2022-12-11T11:28:19.712Z,35.38
2022-12-11T11:31:11.485Z,35.19
2022-12-11T11:33:57.809Z,34.93
2022-12-11T11:36:28.602Z,34.71
2022-12-11T11:39:05.767Z,35.04
2022-12-11T11:41:56.235Z,35.30
2022-12-11T11:44:39.538Z,35.56
2022-12-11T11:47:30.969Z,35.56
2022-12-11T11:50:16.647Z,36.27
2022-12-11T11:52:52.057Z,36.56
2022-12-11T11:55:31.805Z,35.86
2022-12-11T11:58:23.217Z,41.31
2022-12-11T12:00:54.950Z,38.63
2022-12-11T12:03:25.584Z,38.98
2022-12-11T12:06:02.260Z,38.91
2022-12-11T12:08:29.941Z,38.00
2022-12-11T12:11:16.169Z,39.11
2022-12-11T12:13:59.648Z,38.77
2022-12-11T12:16:54.205Z,37.96
2022-12-11T12:19:45.625Z,38.65
2022-12-11T12:22:25.510Z,38.53
2022-12-11T12:25:04.024Z,39.49
2022-12-11T12:27:54.035Z,39.18
2022-12-11T12:30:24.047Z,39.47
2022-12-11T12:32:52.124Z,39.34
2022-12-11T12:35:43.096Z,39.45
2022-12-11T12:38:17.856Z,39.77
2022-12-11T12:40:51.781Z,39.76
2022-12-11T12:43:39.362Z,39.40
2022-12-11T12:46:29.190Z,39.75
2022-12-11T12:48:59.436Z,39.62
2022-12-11T12:51:28.465Z,42.43
2022-12-11T12:54:00.401Z,40.88
2022-12-11T12:56:31.402Z,38.80
2022-12-11T12:58:59.360Z,39.59
2022-12-11T13:01:30.144Z,38.96
2022-12-11T13:04:03.634Z,40.14
2022-12-11T13:06:57.558Z,40.05
2022-12-11T13:09:28.460Z,39.54
2022-12-11T13:12:00.054Z,39.72
2022-12-11T13:14:33.745Z,39.68
2022-12-11T13:17:23.058Z,40.30
2022-12-11T13:19:57.835Z,39.78
2022-12-11T13:22:26.933Z,40.59
2022-12-11T13:25:17.010Z,40.30
2022-12-11T13:27:44.758Z,39.86
2022-12-11T13:30:16.424Z,38.93
2022-12-11T13:33:03.075Z,39.09
2022-12-11T13:35:33.533Z,38.71
2022-12-11T13:38:24.486Z,37.93
2022-12-11T13:40:57.013Z,38.15
2022-12-11T13:43:29.274Z,39.30
2022-12-11T13:46:11.354Z,38.81
2022-12-11T13:48:57.258Z,38.23
2022-12-11T13:51:26.802Z,38.02
2022-12-11T13:54:17.240Z,38.10
2022-12-11T13:57:04.417Z,37.92
2022-12-11T13:59:37.934Z,38.27
2022-12-11T14:02:26.355Z,37.84
2022-12-11T14:05:03.687Z,38.64
2022-12-11T14:08:04.234Z,37.79
2022-12-11T14:10:33.173Z,38.05
2022-12-11T14:13:08.372Z,37.51
2022-12-11T14:15:36.967Z,37.42
2022-12-11T14:18:05.792Z,36.44
2022-12-11T14:20:34.929Z,36.31
2022-12-11T14:23:06.990Z,36.81
2022-12-11T14:25:34.952Z,36.71
2022-12-11T14:28:02.709Z,36.95
2022-12-11T14:30:33.442Z,37.16
2022-12-11T14:33:05.317Z,37.18
2022-12-11T14:35:39.204Z,36.79
2022-12-11T14:38:35.959Z,37.08
2022-12-11T14:41:13.437Z,36.93
2022-12-11T14:43:59.855Z,36.98
2022-12-11T14:47:04.406Z,37.17
2022-12-11T14:49:47.776Z,37.05
2022-12-11T14:52:22.872Z,38.37
2022-12-11T14:54:57.179Z,40.65
2022-12-11T14:57:28.168Z,40.41
2022-12-11T14:59:57.681Z,39.17
2022-12-11T15:02:34.775Z,38.91
2022-12-11T15:05:12.585Z,37.95
2022-12-11T15:07:43.970Z,38.04
2022-12-11T15:10:42.357Z,38.54
2022-12-11T15:13:10.506Z,37.89
2022-12-11T15:15:45.507Z,37.66
2022-12-11T15:18:22.651Z,38.33
2022-12-11T15:20:56.037Z,38.79
2022-12-11T15:23:23.958Z,38.82
2022-12-11T15:25:58.120Z,39.23
2022-12-11T15:28:32.495Z,38.91
2022-12-11T15:31:06.045Z,38.79
2022-12-11T15:33:34.906Z,38.91
2022-12-11T15:36:07.552Z,39.12
2022-12-11T15:38:42.216Z,39.86
2022-12-11T15:41:14.841Z,39.87
2022-12-11T15:43:43.442Z,41.58
2022-12-11T15:46:11.248Z,39.22
2022-12-11T15:48:39.077Z,39.09
2022-12-11T15:51:06.994Z,40.63
2022-12-11T15:53:34.711Z,40.79
2022-12-11T15:56:02.858Z,41.24
2022-12-11T15:58:30.923Z,41.33
2022-12-11T16:00:59.247Z,41.75
2022-12-11T16:03:27.066Z,41.72
2022-12-11T16:05:54.849Z,41.20
2022-12-11T16:08:24.258Z,41.57
2022-12-11T16:10:54.185Z,41.84
2022-12-11T16:13:23.442Z,41.79
2022-12-11T16:15:54.801Z,42.46
2022-12-11T16:18:24.401Z,43.38
2022-12-11T16:20:52.973Z,43.75
2022-12-11T16:23:21.095Z,42.23
2022-12-11T16:25:49.975Z,41.95
2022-12-11T16:28:21.390Z,42.82
2022-12-11T16:30:49.996Z,42.30
2022-12-11T16:33:18.182Z,42.16
2022-12-11T16:35:45.995Z,42.09
2022-12-11T16:38:14.022Z,41.76
2022-12-11T16:40:41.926Z,41.11
2022-12-11T16:43:10.340Z,41.23
2022-12-11T16:45:38.731Z,40.72
2022-12-11T16:48:06.865Z,40.79
2022-12-11T16:50:36.356Z,40.54
2022-12-11T16:53:04.375Z,40.62
2022-12-11T16:55:32.052Z,40.17
2022-12-11T16:57:59.636Z,40.35
2022-12-11T17:00:27.418Z,40.13
2022-12-11T17:02:55.139Z,40.18
2022-12-11T17:05:25.178Z,39.89
2022-12-11T17:07:52.991Z,39.96
2022-12-11T17:10:20.826Z,39.84
2022-12-11T17:12:48.590Z,40.15
2022-12-11T17:15:16.367Z,40.19
2022-12-11T17:17:44.222Z,40.22
2022-12-11T17:20:12.125Z,40.22
2022-12-11T17:22:40.629Z,40.12
2022-12-11T17:25:08.770Z,39.99
2022-12-11T17:27:36.531Z,39.86
2022-12-11T17:30:04.874Z,40.05
2022-12-11T17:32:32.508Z,40.26
2022-12-11T17:35:00.247Z,40.03
2022-12-11T17:37:27.971Z,39.61
2022-12-11T17:39:55.825Z,39.38
2022-12-11T17:42:23.501Z,39.97
2022-12-11T17:44:51.515Z,40.20
2022-12-11T17:47:19.388Z,39.80
2022-12-11T17:49:47.117Z,40.00
2022-12-11T17:52:15.192Z,40.13
2022-12-11T17:54:43.131Z,39.95
2022-12-11T17:57:10.890Z,39.60
2022-12-11T17:59:38.716Z,39.68
2022-12-11T18:02:06.881Z,40.24
2022-12-11T18:04:35.218Z,41.97
2022-12-11T18:07:03.311Z,42.26
2022-12-11T18:09:31.058Z,40.88
2022-12-11T18:11:59.005Z,41.58
2022-12-11T18:14:26.787Z,41.25
2022-12-11T18:16:54.586Z,41.62
2022-12-11T18:19:23.128Z,41.64
2022-12-11T18:21:51.032Z,41.55
2022-12-11T18:24:20.177Z,41.61
2022-12-11T18:26:49.025Z,41.93
2022-12-11T18:29:16.793Z,42.66
2022-12-11T18:31:44.695Z,41.54
2022-12-11T18:34:12.775Z,41.38
2022-12-11T18:36:41.103Z,41.52
2022-12-11T18:39:09.072Z,42.08
2022-12-11T18:41:36.846Z,41.87
2022-12-11T18:44:09.484Z,41.54
2022-12-11T18:46:39.667Z,41.49
2022-12-11T18:49:07.601Z,41.08
2022-12-11T18:51:36.065Z,40.72
2022-12-11T18:54:04.226Z,40.56
2022-12-11T18:56:32.086Z,40.40
2022-12-11T18:58:59.715Z,40.78
2022-12-11T19:01:29.299Z,40.72
2022-12-11T19:04:04.167Z,41.49
2022-12-11T19:06:35.852Z,40.81
2022-12-11T19:09:06.495Z,40.70
2022-12-11T19:11:36.167Z,40.73
2022-12-11T19:14:06.286Z,41.11
2022-12-11T19:16:38.203Z,40.92
2022-12-11T19:19:10.187Z,41.16
2022-12-11T19:21:39.220Z,41.02
2022-12-11T19:24:09.556Z,41.83
2022-12-11T19:26:37.927Z,41.92
2022-12-11T19:29:05.754Z,41.63
2022-12-11T19:31:34.765Z,41.35
2022-12-11T19:34:03.191Z,41.69
2022-12-11T19:36:31.956Z,41.42
2022-12-11T19:39:03.559Z,40.95
2022-12-11T19:41:35.466Z,40.94
2022-12-11T19:44:03.505Z,40.71
2022-12-11T19:46:31.510Z,40.61
2022-12-11T19:49:00.160Z,40.97
2022-12-11T19:51:33.774Z,41.38
2022-12-11T19:54:04.780Z,41.90
2022-12-11T19:56:36.393Z,41.41
2022-12-11T19:59:06.495Z,41.45
2022-12-11T20:01:37.337Z,41.65
2022-12-11T20:04:08.603Z,41.60
2022-12-11T20:06:38.650Z,41.33
2022-12-11T20:09:10.919Z,41.74
2022-12-11T20:11:41.043Z,42.53
2022-12-11T20:14:09.149Z,42.80
2022-12-11T20:17:09.104Z,42.90
2022-12-11T20:19:27.906Z,43.75
2022-12-11T20:21:56.097Z,43.09
2022-12-11T20:24:24.306Z,43.27
2022-12-11T20:26:53.863Z,43.09
2022-12-11T20:29:21.588Z,43.42
2022-12-11T20:31:51.363Z,43.35
2022-12-11T20:34:20.270Z,43.37
2022-12-11T20:36:48.714Z,43.42
2022-12-11T20:39:16.467Z,43.44
2022-12-11T20:41:44.530Z,43.82
2022-12-11T20:44:12.370Z,44.44
2022-12-11T20:46:40.261Z,43.72
2022-12-11T20:49:13.117Z,43.61
2022-12-11T20:51:41.435Z,44.08
2022-12-11T20:54:09.289Z,44.66
2022-12-11T20:56:38.406Z,44.50
2022-12-11T20:59:06.890Z,44.74
2022-12-11T21:01:35.163Z,45.79
2022-12-11T21:04:02.956Z,45.43
2022-12-11T21:06:33.908Z,45.97
2022-12-11T21:09:04.886Z,45.75
2022-12-11T21:11:32.627Z,45.83
2022-12-11T21:14:00.517Z,45.70
2022-12-11T21:16:28.549Z,45.77
2022-12-11T21:18:57.828Z,45.97
2022-12-11T21:21:26.618Z,46.08
2022-12-11T21:23:54.408Z,46.22
2022-12-11T21:26:22.555Z,46.14
2022-12-11T21:28:50.660Z,46.69
2022-12-11T21:31:19.970Z,46.27
2022-12-11T21:33:48.794Z,46.73
2022-12-11T21:36:17.911Z,46.67
2022-12-11T21:38:46.527Z,46.65
2022-12-11T21:41:23.982Z,46.51
2022-12-11T21:46:41.417Z,45.72
2022-12-11T21:49:09.377Z,45.93
2022-12-11T21:51:43.976Z,46.15
2022-12-11T21:54:15.176Z,46.71
2022-12-11T21:56:43.065Z,46.35
2022-12-11T21:59:10.752Z,45.71
2022-12-11T22:01:42.189Z,46.47
2022-12-11T22:04:11.291Z,45.65
2022-12-11T22:06:42.108Z,45.34
2022-12-11T22:09:10.840Z,44.91
2022-12-11T22:11:40.024Z,44.72
2022-12-11T22:14:09.497Z,44.26
2022-12-11T22:16:37.445Z,44.16
2022-12-11T22:19:05.252Z,44.48
2022-12-11T22:21:32.984Z,44.28
2022-12-11T22:24:01.210Z,43.69
2022-12-11T22:26:29.146Z,43.72
2022-12-11T22:28:57.134Z,43.39
2022-12-11T22:31:26.804Z,43.29
2022-12-11T22:33:55.386Z,42.97
2022-12-11T22:36:26.402Z,42.56
2022-12-11T22:38:55.248Z,42.21
2022-12-11T22:41:26.921Z,42.00
2022-12-11T22:43:55.827Z,41.87
2022-12-11T22:46:26.389Z,41.72
2022-12-11T22:48:54.921Z,41.63
2022-12-11T22:51:23.197Z,41.37
2022-12-11T22:53:51.319Z,41.18
2022-12-11T22:56:19.330Z,40.56
2022-12-11T22:58:47.167Z,41.03
2022-12-11T23:01:18.422Z,40.82
2022-12-11T23:03:46.861Z,40.40
2022-12-11T23:06:17.828Z,40.30
2022-12-11T23:08:46.173Z,40.36
2022-12-11T23:11:26.652Z,39.95
2022-12-11T23:13:55.708Z,39.74
2022-12-11T23:16:25.337Z,39.67
2022-12-11T23:18:54.327Z,39.79
2022-12-11T23:21:23.237Z,39.51
2022-12-11T23:23:51.938Z,39.35
2022-12-11T23:26:21.710Z,39.51
2022-12-11T23:28:49.724Z,39.44
2022-12-11T23:31:17.578Z,39.40
2022-12-11T23:33:46.109Z,38.89
2022-12-11T23:36:14.222Z,39.30
2022-12-11T23:38:42.017Z,39.23
2022-12-11T23:41:14.506Z,39.17
2022-12-11T23:43:42.560Z,39.12
2022-12-11T23:46:18.687Z,38.78
2022-12-11T23:48:46.619Z,39.24
2022-12-11T23:51:18.460Z,39.16
2022-12-11T23:53:46.722Z,40.04
2022-12-11T23:56:17.493Z,39.63
2022-12-11T23:58:46.319Z,39.41
